sensor_id;sensor_type;location;lat;lon;timestamp;temperature;humidity
16635;DHT22;8431;52.458;9.998;2023-06-19T00:01:25;18.10;99.90
16635;DHT22;8431;52.458;9.998;2023-06-19T00:03:52;18.10;99.90
16635;DHT22;8431;52.458;9.998;2023-06-19T00:06:19;18.10;99.90
16635;DHT22;8431;52.458;9.998;2023-06-19T00:08:46;18.10;99.90
16635;DHT22;8431;52.458;9.998;2023-06-19T00:11:13;18.20;99.90
16635;DHT22;8431;52.458;9.998;2023-06-19T00:13:40;18.30;99.90
16635;DHT22;8431;52.458;9.998;2023-06-19T00:16:07;18.40;99.90
16635;DHT22;8431;52.458;9.998;2023-06-19T00:18:35;18.50;99.90
16635;DHT22;8431;52.458;9.998;2023-06-19T00:21:05;18.60;99.90
16635;DHT22;8431;52.458;9.998;2023-06-19T00:23:32;18.80;99.90
16635;DHT22;8431;52.458;9.998;2023-06-19T00:25:59;18.80;99.90
16635;DHT22;8431;52.458;9.998;2023-06-19T00:28:27;18.80;99.90
16635;DHT22;8431;52.458;9.998;2023-06-19T00:30:54;18.80;99.90
16635;DHT22;8431;52.458;9.998;2023-06-19T00:33:21;18.80;99.90
16635;DHT22;8431;52.458;9.998;2023-06-19T00:35:50;18.80;99.90
16635;DHT22;8431;52.458;9.998;2023-06-19T00:38:17;18.90;99.90
16635;DHT22;8431;52.458;9.998;2023-06-19T00:40:44;18.90;99.90
16635;DHT22;8431;52.458;9.998;2023-06-19T00:43:11;18.90;99.90
16635;DHT22;8431;52.458;9.998;2023-06-19T00:45:38;18.90;99.90
16635;DHT22;8431;52.458;9.998;2023-06-19T00:48:06;19.00;99.90
16635;DHT22;8431;52.458;9.998;2023-06-19T00:50:33;18.90;99.90
16635;DHT22;8431;52.458;9.998;2023-06-19T00:53:02;19.00;99.90
16635;DHT22;8431;52.458;9.998;2023-06-19T00:55:31;19.00;99.90
16635;DHT22;8431;52.458;9.998;2023-06-19T00:57:59;19.00;99.90
16635;DHT22;8431;52.458;9.998;2023-06-19T01:00:26;19.00;99.90
16635;DHT22;8431;52.458;9.998;2023-06-19T01:02:54;19.00;99.90
16635;DHT22;8431;52.458;9.998;2023-06-19T01:05:21;19.00;99.90
16635;DHT22;8431;52.458;9.998;2023-06-19T01:07:55;19.00;99.90
16635;DHT22;8431;52.458;9.998;2023-06-19T01:10:28;19.00;99.90
16635;DHT22;8431;52.458;9.998;2023-06-19T01:13:00;19.00;99.90
16635;DHT22;8431;52.458;9.998;2023-06-19T01:15:28;19.10;99.90
16635;DHT22;8431;52.458;9.998;2023-06-19T01:17:57;19.10;99.90
16635;DHT22;8431;52.458;9.998;2023-06-19T01:20:26;19.10;99.90
16635;DHT22;8431;52.458;9.998;2023-06-19T01:22:55;19.10;99.90
16635;DHT22;8431;52.458;9.998;2023-06-19T01:25:23;19.10;99.90
16635;DHT22;8431;52.458;9.998;2023-06-19T01:28:10;19.10;99.90
16635;DHT22;8431;52.458;9.998;2023-06-19T01:30:40;19.10;99.90
16635;DHT22;8431;52.458;9.998;2023-06-19T01:33:11;19.10;99.90
16635;DHT22;8431;52.458;9.998;2023-06-19T01:35:42;19.00;99.90
16635;DHT22;8431;52.458;9.998;2023-06-19T01:38:12;19.00;99.90
16635;DHT22;8431;52.458;9.998;2023-06-19T01:40:40;18.90;99.90
16635;DHT22;8431;52.458;9.998;2023-06-19T01:43:08;18.90;99.90
16635;DHT22;8431;52.458;9.998;2023-06-19T01:45:36;18.80;99.90
16635;DHT22;8431;52.458;9.998;2023-06-19T01:48:04;18.80;99.90
16635;DHT22;8431;52.458;9.998;2023-06-19T01:50:31;18.90;99.90
16635;DHT22;8431;52.458;9.998;2023-06-19T01:52:58;18.90;99.90
16635;DHT22;8431;52.458;9.998;2023-06-19T01:55:26;18.90;99.90
16635;DHT22;8431;52.458;9.998;2023-06-19T01:57:53;18.90;99.90
16635;DHT22;8431;52.458;9.998;2023-06-19T02:00:21;18.90;99.90
16635;DHT22;8431;52.458;9.998;2023-06-19T02:02:48;18.90;99.90
16635;DHT22;8431;52.458;9.998;2023-06-19T02:05:14;18.90;99.90
16635;DHT22;8431;52.458;9.998;2023-06-19T02:07:41;18.90;99.90
16635;DHT22;8431;52.458;9.998;2023-06-19T02:10:09;18.90;99.90
16635;DHT22;8431;52.458;9.998;2023-06-19T02:12:37;18.80;99.90
16635;DHT22;8431;52.458;9.998;2023-06-19T02:15:05;18.80;99.90
16635;DHT22;8431;52.458;9.998;2023-06-19T02:17:32;18.80;99.90
16635;DHT22;8431;52.458;9.998;2023-06-19T02:19:59;18.80;99.90
16635;DHT22;8431;52.458;9.998;2023-06-19T02:22:45;18.70;99.90
16635;DHT22;8431;52.458;9.998;2023-06-19T02:25:15;18.80;99.90
16635;DHT22;8431;52.458;9.998;2023-06-19T02:27:43;18.70;99.90
16635;DHT22;8431;52.458;9.998;2023-06-19T02:30:13;18.70;99.90
16635;DHT22;8431;52.458;9.998;2023-06-19T02:32:59;18.70;99.90
16635;DHT22;8431;52.458;9.998;2023-06-19T02:35:26;18.70;99.90
16635;DHT22;8431;52.458;9.998;2023-06-19T02:38:12;18.70;99.90
16635;DHT22;8431;52.458;9.998;2023-06-19T02:40:40;18.60;99.90
16635;DHT22;8431;52.458;9.998;2023-06-19T02:43:08;18.60;99.90
16635;DHT22;8431;52.458;9.998;2023-06-19T02:45:36;18.60;99.90
16635;DHT22;8431;52.458;9.998;2023-06-19T02:48:21;18.60;99.90
16635;DHT22;8431;52.458;9.998;2023-06-19T02:50:49;18.60;99.90
16635;DHT22;8431;52.458;9.998;2023-06-19T02:53:35;18.70;99.90
16635;DHT22;8431;52.458;9.998;2023-06-19T02:56:02;18.70;99.90
16635;DHT22;8431;52.458;9.998;2023-06-19T02:58:30;18.70;99.90
16635;DHT22;8431;52.458;9.998;2023-06-19T03:00:57;18.80;99.90
16635;DHT22;8431;52.458;9.998;2023-06-19T03:03:24;18.80;99.90
16635;DHT22;8431;52.458;9.998;2023-06-19T03:05:51;18.80;99.90
16635;DHT22;8431;52.458;9.998;2023-06-19T03:08:19;18.80;99.90
16635;DHT22;8431;52.458;9.998;2023-06-19T03:10:46;18.90;99.90
16635;DHT22;8431;52.458;9.998;2023-06-19T03:13:13;18.90;99.90
16635;DHT22;8431;52.458;9.998;2023-06-19T03:15:41;18.90;99.90
16635;DHT22;8431;52.458;9.998;2023-06-19T03:18:08;19.00;99.90
16635;DHT22;8431;52.458;9.998;2023-06-19T03:20:36;19.00;99.90
16635;DHT22;8431;52.458;9.998;2023-06-19T03:23:03;19.10;99.90
16635;DHT22;8431;52.458;9.998;2023-06-19T03:25:30;19.10;99.90
16635;DHT22;8431;52.458;9.998;2023-06-19T03:28:00;19.10;99.90
16635;DHT22;8431;52.458;9.998;2023-06-19T03:30:28;19.20;99.90
16635;DHT22;8431;52.458;9.998;2023-06-19T03:32:56;19.20;99.90
16635;DHT22;8431;52.458;9.998;2023-06-19T03:35:23;19.10;99.90
16635;DHT22;8431;52.458;9.998;2023-06-19T03:37:50;19.20;99.90
16635;DHT22;8431;52.458;9.998;2023-06-19T03:40:17;19.20;99.90
16635;DHT22;8431;52.458;9.998;2023-06-19T03:42:44;19.20;99.90
16635;DHT22;8431;52.458;9.998;2023-06-19T03:45:11;19.20;99.90
16635;DHT22;8431;52.458;9.998;2023-06-19T03:47:38;19.30;99.90
16635;DHT22;8431;52.458;9.998;2023-06-19T03:50:08;19.30;99.90
16635;DHT22;8431;52.458;9.998;2023-06-19T03:52:35;19.30;99.90
16635;DHT22;8431;52.458;9.998;2023-06-19T03:55:03;19.30;99.90
16635;DHT22;8431;52.458;9.998;2023-06-19T03:57:30;19.30;99.90
16635;DHT22;8431;52.458;9.998;2023-06-19T03:59:57;19.30;99.90
16635;DHT22;8431;52.458;9.998;2023-06-19T04:02:24;19.40;99.90
16635;DHT22;8431;52.458;9.998;2023-06-19T04:04:51;19.40;99.90
16635;DHT22;8431;52.458;9.998;2023-06-19T04:07:20;19.40;99.90
16635;DHT22;8431;52.458;9.998;2023-06-19T04:09:47;19.30;99.90
16635;DHT22;8431;52.458;9.998;2023-06-19T04:12:14;19.30;99.90
16635;DHT22;8431;52.458;9.998;2023-06-19T04:14:41;19.30;99.90
16635;DHT22;8431;52.458;9.998;2023-06-19T04:17:08;19.40;99.90
16635;DHT22;8431;52.458;9.998;2023-06-19T04:19:35;19.50;99.90
16635;DHT22;8431;52.458;9.998;2023-06-19T04:22:01;19.50;99.90
16635;DHT22;8431;52.458;9.998;2023-06-19T04:24:30;19.50;99.90
16635;DHT22;8431;52.458;9.998;2023-06-19T04:26:57;19.40;99.90
16635;DHT22;8431;52.458;9.998;2023-06-19T04:29:24;19.40;99.90
16635;DHT22;8431;52.458;9.998;2023-06-19T04:31:51;19.40;99.90
16635;DHT22;8431;52.458;9.998;2023-06-19T04:34:18;19.30;99.90
16635;DHT22;8431;52.458;9.998;2023-06-19T04:36:46;19.40;99.90
16635;DHT22;8431;52.458;9.998;2023-06-19T04:39:13;19.40;99.90
16635;DHT22;8431;52.458;9.998;2023-06-19T04:41:43;19.40;99.90
16635;DHT22;8431;52.458;9.998;2023-06-19T04:44:10;19.40;99.90
16635;DHT22;8431;52.458;9.998;2023-06-19T04:46:38;19.40;99.90
16635;DHT22;8431;52.458;9.998;2023-06-19T04:49:05;19.40;99.90
16635;DHT22;8431;52.458;9.998;2023-06-19T04:51:32;19.30;99.90
16635;DHT22;8431;52.458;9.998;2023-06-19T04:53:59;19.00;99.90
16635;DHT22;8431;52.458;9.998;2023-06-19T04:56:26;18.80;99.90
16635;DHT22;8431;52.458;9.998;2023-06-19T04:58:55;18.70;99.90
16635;DHT22;8431;52.458;9.998;2023-06-19T05:01:25;18.60;99.90
16635;DHT22;8431;52.458;9.998;2023-06-19T05:03:55;18.50;99.90
16635;DHT22;8431;52.458;9.998;2023-06-19T05:06:22;18.40;99.90
16635;DHT22;8431;52.458;9.998;2023-06-19T05:08:49;18.40;99.90
16635;DHT22;8431;52.458;9.998;2023-06-19T05:11:30;18.40;99.90
16635;DHT22;8431;52.458;9.998;2023-06-19T05:14:33;18.50;99.90
16635;DHT22;8431;52.458;9.998;2023-06-19T05:17:32;18.60;99.90
16635;DHT22;8431;52.458;9.998;2023-06-19T05:20:20;18.60;99.90
16635;DHT22;8431;52.458;9.998;2023-06-19T05:23:08;18.50;99.90
16635;DHT22;8431;52.458;9.998;2023-06-19T05:25:42;18.50;99.90
16635;DHT22;8431;52.458;9.998;2023-06-19T05:28:09;18.40;99.90
16635;DHT22;8431;52.458;9.998;2023-06-19T05:30:38;18.30;99.90
16635;DHT22;8431;52.458;9.998;2023-06-19T05:33:05;18.20;99.90
16635;DHT22;8431;52.458;9.998;2023-06-19T05:35:32;18.20;99.90
16635;DHT22;8431;52.458;9.998;2023-06-19T05:37:59;18.30;99.90
16635;DHT22;8431;52.458;9.998;2023-06-19T05:40:26;18.40;99.90
16635;DHT22;8431;52.458;9.998;2023-06-19T05:42:54;18.50;99.90
16635;DHT22;8431;52.458;9.998;2023-06-19T05:45:22;18.60;99.90
16635;DHT22;8431;52.458;9.998;2023-06-19T05:47:50;18.70;99.90
16635;DHT22;8431;52.458;9.998;2023-06-19T05:50:17;18.80;99.90
16635;DHT22;8431;52.458;9.998;2023-06-19T05:52:44;18.90;99.90
16635;DHT22;8431;52.458;9.998;2023-06-19T05:55:11;18.90;99.90
16635;DHT22;8431;52.458;9.998;2023-06-19T05:57:38;19.10;99.90
16635;DHT22;8431;52.458;9.998;2023-06-19T06:00:07;19.20;99.90
16635;DHT22;8431;52.458;9.998;2023-06-19T06:02:39;19.40;99.90
16635;DHT22;8431;52.458;9.998;2023-06-19T06:05:09;19.50;99.90
16635;DHT22;8431;52.458;9.998;2023-06-19T06:07:36;19.70;99.90
16635;DHT22;8431;52.458;9.998;2023-06-19T06:10:03;19.90;99.90
16635;DHT22;8431;52.458;9.998;2023-06-19T06:12:33;20.00;99.90
16635;DHT22;8431;52.458;9.998;2023-06-19T06:15:00;20.20;99.90
16635;DHT22;8431;52.458;9.998;2023-06-19T06:17:27;20.30;99.90
16635;DHT22;8431;52.458;9.998;2023-06-19T06:19:57;20.40;99.90
16635;DHT22;8431;52.458;9.998;2023-06-19T06:22:25;20.60;99.90
16635;DHT22;8431;52.458;9.998;2023-06-19T06:24:52;20.70;99.90
16635;DHT22;8431;52.458;9.998;2023-06-19T06:27:20;20.80;99.90
16635;DHT22;8431;52.458;9.998;2023-06-19T06:29:47;21.10;99.90
16635;DHT22;8431;52.458;9.998;2023-06-19T06:32:14;21.40;99.90
16635;DHT22;8431;52.458;9.998;2023-06-19T06:34:41;21.70;99.90
16635;DHT22;8431;52.458;9.998;2023-06-19T06:37:08;22.00;99.90
16635;DHT22;8431;52.458;9.998;2023-06-19T06:39:36;22.00;99.90
16635;DHT22;8431;52.458;9.998;2023-06-19T06:42:04;22.10;99.90
16635;DHT22;8431;52.458;9.998;2023-06-19T06:44:31;22.10;99.90
16635;DHT22;8431;52.458;9.998;2023-06-19T06:46:58;22.10;99.90
16635;DHT22;8431;52.458;9.998;2023-06-19T06:49:25;22.20;99.90
16635;DHT22;8431;52.458;9.998;2023-06-19T06:51:52;22.30;99.90
16635;DHT22;8431;52.458;9.998;2023-06-19T06:54:19;22.30;99.90
16635;DHT22;8431;52.458;9.998;2023-06-19T06:56:48;22.20;99.90
16635;DHT22;8431;52.458;9.998;2023-06-19T06:59:15;21.90;99.90
16635;DHT22;8431;52.458;9.998;2023-06-19T07:01:42;22.10;99.90
16635;DHT22;8431;52.458;9.998;2023-06-19T07:04:32;22.10;99.90
16635;DHT22;8431;52.458;9.998;2023-06-19T07:06:59;22.40;99.90
16635;DHT22;8431;52.458;9.998;2023-06-19T07:09:27;22.70;99.90
16635;DHT22;8431;52.458;9.998;2023-06-19T07:11:55;23.10;99.90
16635;DHT22;8431;52.458;9.998;2023-06-19T07:14:23;23.50;99.90
16635;DHT22;8431;52.458;9.998;2023-06-19T07:16:50;23.70;99.90
16635;DHT22;8431;52.458;9.998;2023-06-19T07:19:17;23.90;99.90
16635;DHT22;8431;52.458;9.998;2023-06-19T07:21:44;24.00;99.90
16635;DHT22;8431;52.458;9.998;2023-06-19T07:24:11;24.10;99.90
16635;DHT22;8431;52.458;9.998;2023-06-19T07:26:38;24.20;99.90
16635;DHT22;8431;52.458;9.998;2023-06-19T07:29:06;24.00;99.90
16635;DHT22;8431;52.458;9.998;2023-06-19T07:31:33;24.10;99.90
16635;DHT22;8431;52.458;9.998;2023-06-19T07:34:00;24.00;99.90
16635;DHT22;8431;52.458;9.998;2023-06-19T07:36:28;24.10;99.90
16635;DHT22;8431;52.458;9.998;2023-06-19T07:38:55;24.20;99.90
16635;DHT22;8431;52.458;9.998;2023-06-19T07:41:22;24.40;99.90
16635;DHT22;8431;52.458;9.998;2023-06-19T07:43:49;24.70;99.90
16635;DHT22;8431;52.458;9.998;2023-06-19T07:46:17;24.80;99.90
16635;DHT22;8431;52.458;9.998;2023-06-19T07:48:44;24.70;99.90
16635;DHT22;8431;52.458;9.998;2023-06-19T07:51:11;24.70;99.90
16635;DHT22;8431;52.458;9.998;2023-06-19T07:53:38;24.60;99.90
16635;DHT22;8431;52.458;9.998;2023-06-19T07:56:06;24.70;99.90
16635;DHT22;8431;52.458;9.998;2023-06-19T07:58:34;24.90;99.90
16635;DHT22;8431;52.458;9.998;2023-06-19T08:01:10;25.00;99.90
16635;DHT22;8431;52.458;9.998;2023-06-19T08:03:41;25.10;99.90
16635;DHT22;8431;52.458;9.998;2023-06-19T08:06:08;25.20;99.90
16635;DHT22;8431;52.458;9.998;2023-06-19T08:08:35;25.20;99.90
16635;DHT22;8431;52.458;9.998;2023-06-19T08:11:05;24.90;99.90
16635;DHT22;8431;52.458;9.998;2023-06-19T08:13:35;24.80;99.90
16635;DHT22;8431;52.458;9.998;2023-06-19T08:16:02;24.90;99.90
16635;DHT22;8431;52.458;9.998;2023-06-19T08:18:29;24.80;99.90
16635;DHT22;8431;52.458;9.998;2023-06-19T08:20:57;25.10;99.90
16635;DHT22;8431;52.458;9.998;2023-06-19T08:23:24;25.30;99.90
16635;DHT22;8431;52.458;9.998;2023-06-19T08:25:51;25.60;99.90
16635;DHT22;8431;52.458;9.998;2023-06-19T08:28:18;25.70;99.90
16635;DHT22;8431;52.458;9.998;2023-06-19T08:30:45;25.80;99.90
16635;DHT22;8431;52.458;9.998;2023-06-19T08:33:13;25.70;99.90
16635;DHT22;8431;52.458;9.998;2023-06-19T08:35:40;25.60;99.90
16635;DHT22;8431;52.458;9.998;2023-06-19T08:38:08;25.70;99.90
16635;DHT22;8431;52.458;9.998;2023-06-19T08:40:35;25.70;99.90
16635;DHT22;8431;52.458;9.998;2023-06-19T08:43:02;25.70;99.90
16635;DHT22;8431;52.458;9.998;2023-06-19T08:45:29;25.70;99.90
16635;DHT22;8431;52.458;9.998;2023-06-19T08:47:59;25.70;99.90
16635;DHT22;8431;52.458;9.998;2023-06-19T08:50:32;25.80;99.90
16635;DHT22;8431;52.458;9.998;2023-06-19T08:53:02;25.90;99.90
16635;DHT22;8431;52.458;9.998;2023-06-19T08:55:30;25.80;99.90
16635;DHT22;8431;52.458;9.998;2023-06-19T08:57:58;25.80;99.90
16635;DHT22;8431;52.458;9.998;2023-06-19T09:00:26;25.80;99.90
16635;DHT22;8431;52.458;9.998;2023-06-19T09:02:59;25.90;99.90
16635;DHT22;8431;52.458;9.998;2023-06-19T09:05:27;26.00;99.90
16635;DHT22;8431;52.458;9.998;2023-06-19T09:07:56;26.10;99.90
16635;DHT22;8431;52.458;9.998;2023-06-19T09:10:25;26.30;99.90
16635;DHT22;8431;52.458;9.998;2023-06-19T09:13:01;26.40;99.90
16635;DHT22;8431;52.458;9.998;2023-06-19T09:15:30;26.50;99.90
16635;DHT22;8431;52.458;9.998;2023-06-19T09:18:05;26.50;99.90
16635;DHT22;8431;52.458;9.998;2023-06-19T09:20:33;26.60;99.90
16635;DHT22;8431;52.458;9.998;2023-06-19T09:23:02;26.60;99.90
16635;DHT22;8431;52.458;9.998;2023-06-19T09:25:31;26.60;99.90
16635;DHT22;8431;52.458;9.998;2023-06-19T09:28:00;26.80;99.90
16635;DHT22;8431;52.458;9.998;2023-06-19T09:30:27;26.90;99.90
16635;DHT22;8431;52.458;9.998;2023-06-19T09:32:54;26.90;99.90
16635;DHT22;8431;52.458;9.998;2023-06-19T09:35:21;27.00;99.90
16635;DHT22;8431;52.458;9.998;2023-06-19T09:37:49;27.10;99.90
16635;DHT22;8431;52.458;9.998;2023-06-19T09:40:21;27.30;99.90
16635;DHT22;8431;52.458;9.998;2023-06-19T09:42:54;27.50;99.90
16635;DHT22;8431;52.458;9.998;2023-06-19T09:45:26;27.70;99.90
16635;DHT22;8431;52.458;9.998;2023-06-19T09:47:55;27.70;99.90
16635;DHT22;8431;52.458;9.998;2023-06-19T09:50:23;27.70;99.90
16635;DHT22;8431;52.458;9.998;2023-06-19T09:52:54;27.60;99.90
16635;DHT22;8431;52.458;9.998;2023-06-19T09:55:22;27.60;99.90
16635;DHT22;8431;52.458;9.998;2023-06-19T09:57:54;27.70;99.90
16635;DHT22;8431;52.458;9.998;2023-06-19T10:00:21;27.80;99.90
16635;DHT22;8431;52.458;9.998;2023-06-19T10:02:53;27.70;99.90
16635;DHT22;8431;52.458;9.998;2023-06-19T10:05:28;27.90;99.90
16635;DHT22;8431;52.458;9.998;2023-06-19T10:07:56;28.10;99.90
16635;DHT22;8431;52.458;9.998;2023-06-19T10:10:26;28.20;99.90
16635;DHT22;8431;52.458;9.998;2023-06-19T10:12:55;28.20;99.90
16635;DHT22;8431;52.458;9.998;2023-06-19T10:15:23;28.00;99.90
16635;DHT22;8431;52.458;9.998;2023-06-19T10:17:53;28.10;99.90
16635;DHT22;8431;52.458;9.998;2023-06-19T10:20:24;28.60;99.90
16635;DHT22;8431;52.458;9.998;2023-06-19T10:23:04;28.70;99.90
16635;DHT22;8431;52.458;9.998;2023-06-19T10:25:33;28.60;99.90
16635;DHT22;8431;52.458;9.998;2023-06-19T10:28:02;28.30;99.90
16635;DHT22;8431;52.458;9.998;2023-06-19T10:30:31;27.80;99.90
16635;DHT22;8431;52.458;9.998;2023-06-19T10:33:01;27.80;99.90
16635;DHT22;8431;52.458;9.998;2023-06-19T10:35:36;27.80;99.90
16635;DHT22;8431;52.458;9.998;2023-06-19T10:38:03;28.00;99.90
16635;DHT22;8431;52.458;9.998;2023-06-19T10:40:30;28.50;99.90
16635;DHT22;8431;52.458;9.998;2023-06-19T10:42:57;28.90;99.90
16635;DHT22;8431;52.458;9.998;2023-06-19T10:45:24;29.30;99.90
16635;DHT22;8431;52.458;9.998;2023-06-19T10:47:54;29.40;99.90
16635;DHT22;8431;52.458;9.998;2023-06-19T10:50:27;29.20;99.90
16635;DHT22;8431;52.458;9.998;2023-06-19T10:52:56;29.00;99.90
16635;DHT22;8431;52.458;9.998;2023-06-19T10:55:23;29.00;99.90
16635;DHT22;8431;52.458;9.998;2023-06-19T10:57:51;29.00;99.90
16635;DHT22;8431;52.458;9.998;2023-06-19T11:00:26;29.00;99.90
16635;DHT22;8431;52.458;9.998;2023-06-19T11:02:54;29.10;99.90
16635;DHT22;8431;52.458;9.998;2023-06-19T11:05:22;28.90;99.90
16635;DHT22;8431;52.458;9.998;2023-06-19T11:07:55;28.80;99.90
16635;DHT22;8431;52.458;9.998;2023-06-19T11:10:23;29.30;99.90
16635;DHT22;8431;52.458;9.998;2023-06-19T11:12:53;29.70;99.90
16635;DHT22;8431;52.458;9.998;2023-06-19T11:15:27;30.00;99.90
16635;DHT22;8431;52.458;9.998;2023-06-19T11:17:54;30.10;99.90
16635;DHT22;8431;52.458;9.998;2023-06-19T11:20:21;29.90;99.90
16635;DHT22;8431;52.458;9.998;2023-06-19T11:22:56;30.00;99.90
16635;DHT22;8431;52.458;9.998;2023-06-19T11:25:24;30.30;99.90
16635;DHT22;8431;52.458;9.998;2023-06-19T11:27:51;30.40;99.90
16635;DHT22;8431;52.458;9.998;2023-06-19T11:30:30;29.70;99.90
16635;DHT22;8431;52.458;9.998;2023-06-19T11:32:57;29.00;99.90
16635;DHT22;8431;52.458;9.998;2023-06-19T11:35:24;28.60;99.90
16635;DHT22;8431;52.458;9.998;2023-06-19T11:37:51;28.20;99.90
16635;DHT22;8431;52.458;9.998;2023-06-19T11:40:20;27.90;99.90
16635;DHT22;8431;52.458;9.998;2023-06-19T11:42:51;27.80;99.90
16635;DHT22;8431;52.458;9.998;2023-06-19T11:45:18;27.70;99.90
16635;DHT22;8431;52.458;9.998;2023-06-19T11:47:45;27.90;99.90
16635;DHT22;8431;52.458;9.998;2023-06-19T11:50:13;28.60;99.90
16635;DHT22;8431;52.458;9.998;2023-06-19T11:52:42;29.00;99.90
16635;DHT22;8431;52.458;9.998;2023-06-19T11:55:09;29.30;99.90
16635;DHT22;8431;52.458;9.998;2023-06-19T11:57:38;29.10;99.90
16635;DHT22;8431;52.458;9.998;2023-06-19T12:00:14;28.70;99.90
16635;DHT22;8431;52.458;9.998;2023-06-19T12:02:41;28.80;99.90
16635;DHT22;8431;52.458;9.998;2023-06-19T12:05:10;28.80;99.90
16635;DHT22;8431;52.458;9.998;2023-06-19T12:07:38;29.00;99.90
16635;DHT22;8431;52.458;9.998;2023-06-19T12:10:06;29.30;99.90
16635;DHT22;8431;52.458;9.998;2023-06-19T12:12:40;28.90;99.90
16635;DHT22;8431;52.458;9.998;2023-06-19T12:15:07;29.00;99.90
16635;DHT22;8431;52.458;9.998;2023-06-19T12:17:34;29.10;99.90
16635;DHT22;8431;52.458;9.998;2023-06-19T12:20:01;29.20;99.90
16635;DHT22;8431;52.458;9.998;2023-06-19T12:22:31;29.30;99.90
16635;DHT22;8431;52.458;9.998;2023-06-19T12:24:58;29.00;99.90
16635;DHT22;8431;52.458;9.998;2023-06-19T12:27:25;28.70;99.90
16635;DHT22;8431;52.458;9.998;2023-06-19T12:30:02;28.70;99.90
16635;DHT22;8431;52.458;9.998;2023-06-19T12:32:36;28.60;99.90
16635;DHT22;8431;52.458;9.998;2023-06-19T12:35:04;28.20;99.90
16635;DHT22;8431;52.458;9.998;2023-06-19T12:37:31;28.30;99.90
16635;DHT22;8431;52.458;9.998;2023-06-19T12:39:58;28.20;99.90
16635;DHT22;8431;52.458;9.998;2023-06-19T12:42:25;27.90;99.90
16635;DHT22;8431;52.458;9.998;2023-06-19T12:44:55;27.60;99.90
16635;DHT22;8431;52.458;9.998;2023-06-19T12:47:24;27.70;99.90
16635;DHT22;8431;52.458;9.998;2023-06-19T12:49:51;27.90;99.90
16635;DHT22;8431;52.458;9.998;2023-06-19T12:52:18;28.10;99.90
16635;DHT22;8431;52.458;9.998;2023-06-19T12:54:45;28.00;99.90
16635;DHT22;8431;52.458;9.998;2023-06-19T12:57:12;27.70;99.90
16635;DHT22;8431;52.458;9.998;2023-06-19T12:59:39;27.70;99.90
16635;DHT22;8431;52.458;9.998;2023-06-19T13:02:07;28.10;99.90
16635;DHT22;8431;52.458;9.998;2023-06-19T13:04:36;28.60;99.90
16635;DHT22;8431;52.458;9.998;2023-06-19T13:07:04;28.80;99.90
16635;DHT22;8431;52.458;9.998;2023-06-19T13:09:31;29.40;99.90
16635;DHT22;8431;52.458;9.998;2023-06-19T13:11:58;29.80;99.90
16635;DHT22;8431;52.458;9.998;2023-06-19T13:14:25;29.60;99.90
16635;DHT22;8431;52.458;9.998;2023-06-19T13:16:52;29.40;99.90
16635;DHT22;8431;52.458;9.998;2023-06-19T13:19:19;28.90;99.90
16635;DHT22;8431;52.458;9.998;2023-06-19T13:21:47;28.50;99.90
16635;DHT22;8431;52.458;9.998;2023-06-19T13:24:19;28.20;99.90
16635;DHT22;8431;52.458;9.998;2023-06-19T13:26:46;28.00;99.90
16635;DHT22;8431;52.458;9.998;2023-06-19T13:29:14;27.90;99.90
16635;DHT22;8431;52.458;9.998;2023-06-19T13:31:41;27.90;99.90
16635;DHT22;8431;52.458;9.998;2023-06-19T13:34:08;27.80;99.90
16635;DHT22;8431;52.458;9.998;2023-06-19T13:36:39;27.80;99.90
16635;DHT22;8431;52.458;9.998;2023-06-19T13:39:08;27.80;99.90
16635;DHT22;8431;52.458;9.998;2023-06-19T13:41:38;27.70;99.90
16635;DHT22;8431;52.458;9.998;2023-06-19T13:44:05;27.90;99.90
16635;DHT22;8431;52.458;9.998;2023-06-19T13:46:39;28.20;99.90
16635;DHT22;8431;52.458;9.998;2023-06-19T13:49:22;28.30;99.90
16635;DHT22;8431;52.458;9.998;2023-06-19T13:51:52;28.30;99.90
16635;DHT22;8431;52.458;9.998;2023-06-19T13:54:21;28.00;99.90
16635;DHT22;8431;52.458;9.998;2023-06-19T13:56:48;27.70;99.90
16635;DHT22;8431;52.458;9.998;2023-06-19T13:59:16;27.50;99.90
16635;DHT22;8431;52.458;9.998;2023-06-19T14:01:44;27.60;99.90
16635;DHT22;8431;52.458;9.998;2023-06-19T14:04:10;27.80;99.90
16635;DHT22;8431;52.458;9.998;2023-06-19T14:06:38;28.10;99.90
16635;DHT22;8431;52.458;9.998;2023-06-19T14:09:07;28.50;99.90
16635;DHT22;8431;52.458;9.998;2023-06-19T14:11:35;28.60;99.90
16635;DHT22;8431;52.458;9.998;2023-06-19T14:14:02;28.50;99.90
16635;DHT22;8431;52.458;9.998;2023-06-19T14:16:30;28.40;99.90
16635;DHT22;8431;52.458;9.998;2023-06-19T14:18:57;28.20;99.90
16635;DHT22;8431;52.458;9.998;2023-06-19T14:21:24;28.20;99.90
16635;DHT22;8431;52.458;9.998;2023-06-19T14:23:54;28.00;99.90
16635;DHT22;8431;52.458;9.998;2023-06-19T14:26:21;27.90;99.90
16635;DHT22;8431;52.458;9.998;2023-06-19T14:28:50;27.80;99.90
16635;DHT22;8431;52.458;9.998;2023-06-19T14:31:21;27.70;99.90
16635;DHT22;8431;52.458;9.998;2023-06-19T14:33:49;27.70;99.90
16635;DHT22;8431;52.458;9.998;2023-06-19T14:36:16;27.70;99.90
16635;DHT22;8431;52.458;9.998;2023-06-19T14:38:44;27.80;99.90
16635;DHT22;8431;52.458;9.998;2023-06-19T14:41:11;27.80;99.90
16635;DHT22;8431;52.458;9.998;2023-06-19T14:43:38;27.70;99.90
16635;DHT22;8431;52.458;9.998;2023-06-19T14:46:07;27.50;99.90
16635;DHT22;8431;52.458;9.998;2023-06-19T14:51:57;27.50;99.90
16635;DHT22;8431;52.458;9.998;2023-06-19T14:54:24;27.50;99.90
16635;DHT22;8431;52.458;9.998;2023-06-19T14:56:50;27.50;99.90
16635;DHT22;8431;52.458;9.998;2023-06-19T14:59:17;27.70;99.90
16635;DHT22;8431;52.458;9.998;2023-06-19T15:01:46;28.10;99.90
16635;DHT22;8431;52.458;9.998;2023-06-19T15:04:13;28.40;99.90
16635;DHT22;8431;52.458;9.998;2023-06-19T15:06:40;28.30;99.90
16635;DHT22;8431;52.458;9.998;2023-06-19T15:09:07;28.20;99.90
16635;DHT22;8431;52.458;9.998;2023-06-19T15:11:34;28.00;99.90
16635;DHT22;8431;52.458;9.998;2023-06-19T15:14:01;27.80;99.90
16635;DHT22;8431;52.458;9.998;2023-06-19T15:16:28;27.60;99.90
16635;DHT22;8431;52.458;9.998;2023-06-19T15:18:56;27.60;99.90
16635;DHT22;8431;52.458;9.998;2023-06-19T15:21:23;27.70;99.90
16635;DHT22;8431;52.458;9.998;2023-06-19T15:23:53;27.80;99.90
16635;DHT22;8431;52.458;9.998;2023-06-19T15:26:21;27.80;99.90
16635;DHT22;8431;52.458;9.998;2023-06-19T15:28:48;27.70;99.90
16635;DHT22;8431;52.458;9.998;2023-06-19T15:31:20;27.80;99.90
16635;DHT22;8431;52.458;9.998;2023-06-19T15:33:48;28.00;99.90
16635;DHT22;8431;52.458;9.998;2023-06-19T15:36:17;28.00;99.90
16635;DHT22;8431;52.458;9.998;2023-06-19T15:38:44;28.00;99.90
16635;DHT22;8431;52.458;9.998;2023-06-19T15:41:11;27.80;99.90
16635;DHT22;8431;52.458;9.998;2023-06-19T15:43:38;27.50;99.90
16635;DHT22;8431;52.458;9.998;2023-06-19T15:46:05;27.30;99.90
16635;DHT22;8431;52.458;9.998;2023-06-19T15:48:37;27.30;99.90
16635;DHT22;8431;52.458;9.998;2023-06-19T15:51:04;27.40;99.90
16635;DHT22;8431;52.458;9.998;2023-06-19T15:53:32;27.70;99.90
16635;DHT22;8431;52.458;9.998;2023-06-19T15:55:59;28.00;99.90
16635;DHT22;8431;52.458;9.998;2023-06-19T15:58:26;28.50;99.90